sensor_id;sensor_type;location;lat;lon;timestamp;pressure;altitude;pressure_sealevel;temperature;humidity
61478;BME280;47345;52.334;10.392;2023-05-15T00:00:28;100555.81;;;14.09;66.80
61478;BME280;47345;52.334;10.392;2023-05-15T00:02:59;100551.39;;;14.05;66.80
61478;BME280;47345;52.334;10.392;2023-05-15T00:05:30;100553.31;;;14.03;66.85
61478;BME280;47345;52.334;10.392;2023-05-15T00:08:02;100556.17;;;14.01;66.84
61478;BME280;47345;52.334;10.392;2023-05-15T00:10:33;100552.52;;;14.00;67.01
61478;BME280;47345;52.334;10.392;2023-05-15T00:13:05;100546.39;;;13.99;66.82
61478;BME280;47345;52.334;10.392;2023-05-15T00:15:38;100544.58;;;13.99;66.65
61478;BME280;47345;52.334;10.392;2023-05-15T00:18:08;100544.88;;;13.98;66.81
61478;BME280;47345;52.334;10.392;2023-05-15T00:20:39;100538.61;;;13.99;67.15
61478;BME280;47345;52.334;10.392;2023-05-15T00:23:10;100536.63;;;13.98;67.11
61478;BME280;47345;52.334;10.392;2023-05-15T00:25:40;100532.63;;;13.97;67.34
61478;BME280;47345;52.334;10.392;2023-05-15T00:28:11;100530.11;;;13.95;67.11
61478;BME280;47345;52.334;10.392;2023-05-15T00:30:42;100531.03;;;13.93;67.00
61478;BME280;47345;52.334;10.392;2023-05-15T00:33:15;100533.13;;;13.89;67.46
61478;BME280;47345;52.334;10.392;2023-05-15T00:35:46;100534.62;;;13.82;67.72
61478;BME280;47345;52.334;10.392;2023-05-15T00:38:17;100529.41;;;13.75;67.45
61478;BME280;47345;52.334;10.392;2023-05-15T00:40:49;100532.84;;;13.69;67.24
61478;BME280;47345;52.334;10.392;2023-05-15T00:43:21;100535.02;;;13.64;67.14
61478;BME280;47345;52.334;10.392;2023-05-15T00:45:56;100529.80;;;13.58;67.16
61478;BME280;47345;52.334;10.392;2023-05-15T00:48:28;100526.55;;;13.54;67.56
61478;BME280;47345;52.334;10.392;2023-05-15T00:50:59;100526.77;;;13.51;67.95
61478;BME280;47345;52.334;10.392;2023-05-15T00:53:30;100527.45;;;13.45;68.05
61478;BME280;47345;52.334;10.392;2023-05-15T00:56:01;100524.41;;;13.39;68.18
61478;BME280;47345;52.334;10.392;2023-05-15T00:58:32;100528.16;;;13.36;68.39
61478;BME280;47345;52.334;10.392;2023-05-15T01:01:03;100526.91;;;13.31;68.40
61478;BME280;47345;52.334;10.392;2023-05-15T01:03:38;100523.44;;;13.26;68.46
61478;BME280;47345;52.334;10.392;2023-05-15T01:06:09;100523.04;;;13.21;68.53
61478;BME280;47345;52.334;10.392;2023-05-15T01:08:44;100521.44;;;13.18;68.67
61478;BME280;47345;52.334;10.392;2023-05-15T01:11:16;100515.51;;;13.12;68.83
61478;BME280;47345;52.334;10.392;2023-05-15T01:13:47;100520.19;;;13.09;68.87
61478;BME280;47345;52.334;10.392;2023-05-15T01:16:19;100523.18;;;13.06;68.91
61478;BME280;47345;52.334;10.392;2023-05-15T01:18:50;100520.55;;;13.02;69.15
61478;BME280;47345;52.334;10.392;2023-05-15T01:24:41;100518.41;;;12.93;69.15
61478;BME280;47345;52.334;10.392;2023-05-15T01:27:19;100518.30;;;12.88;69.56
61478;BME280;47345;52.334;10.392;2023-05-15T01:30:02;100513.59;;;12.82;69.71
61478;BME280;47345;52.334;10.392;2023-05-15T01:32:40;100511.98;;;12.79;69.71
61478;BME280;47345;52.334;10.392;2023-05-15T01:35:15;100513.01;;;12.74;69.68
61478;BME280;47345;52.334;10.392;2023-05-15T01:37:56;100512.93;;;12.69;69.94
61478;BME280;47345;52.334;10.392;2023-05-15T01:40:32;100509.12;;;12.63;69.99
61478;BME280;47345;52.334;10.392;2023-05-15T01:43:08;100511.79;;;12.57;70.31
61478;BME280;47345;52.334;10.392;2023-05-15T01:45:42;100511.45;;;12.52;70.83
61478;BME280;47345;52.334;10.392;2023-05-15T01:48:15;100507.44;;;12.48;70.78
61478;BME280;47345;52.334;10.392;2023-05-15T01:50:48;100504.86;;;12.45;70.69
61478;BME280;47345;52.334;10.392;2023-05-15T01:53:20;100513.03;;;12.41;70.76
61478;BME280;47345;52.334;10.392;2023-05-15T01:55:52;100507.83;;;12.38;70.83
61478;BME280;47345;52.334;10.392;2023-05-15T01:58:25;100508.54;;;12.34;70.71
61478;BME280;47345;52.334;10.392;2023-05-15T02:00:57;100504.02;;;12.30;70.76
61478;BME280;47345;52.334;10.392;2023-05-15T02:03:30;100504.87;;;12.24;70.83
61478;BME280;47345;52.334;10.392;2023-05-15T02:06:03;100501.09;;;12.18;70.82
61478;BME280;47345;52.334;10.392;2023-05-15T02:08:38;100501.52;;;12.12;71.15
61478;BME280;47345;52.334;10.392;2023-05-15T02:11:10;100494.29;;;12.09;71.23
61478;BME280;47345;52.334;10.392;2023-05-15T02:13:42;100493.23;;;12.05;71.22
61478;BME280;47345;52.334;10.392;2023-05-15T02:16:14;100487.44;;;12.01;71.33
61478;BME280;47345;52.334;10.392;2023-05-15T02:18:45;100487.86;;;11.98;71.57
61478;BME280;47345;52.334;10.392;2023-05-15T02:21:19;100486.45;;;11.93;71.30
61478;BME280;47345;52.334;10.392;2023-05-15T02:23:49;100486.69;;;11.91;71.40
61478;BME280;47345;52.334;10.392;2023-05-15T02:26:29;100483.46;;;11.88;71.57
61478;BME280;47345;52.334;10.392;2023-05-15T02:29:11;100480.33;;;11.83;71.63
61478;BME280;47345;52.334;10.392;2023-05-15T02:31:49;100475.31;;;11.82;71.68
61478;BME280;47345;52.334;10.392;2023-05-15T02:34:29;100479.25;;;11.80;71.74
61478;BME280;47345;52.334;10.392;2023-05-15T02:37:03;100475.05;;;11.78;71.60
61478;BME280;47345;52.334;10.392;2023-05-15T02:39:38;100469.41;;;11.76;71.60
61478;BME280;47345;52.334;10.392;2023-05-15T02:42:10;100473.07;;;11.73;71.56
61478;BME280;47345;52.334;10.392;2023-05-15T02:44:42;100467.00;;;11.71;71.66
61478;BME280;47345;52.334;10.392;2023-05-15T02:47:14;100464.53;;;11.69;71.82
61478;BME280;47345;52.334;10.392;2023-05-15T02:49:46;100461.20;;;11.64;71.75
61478;BME280;47345;52.334;10.392;2023-05-15T02:52:16;100461.24;;;11.64;71.92
61478;BME280;47345;52.334;10.392;2023-05-15T02:54:47;100465.65;;;11.61;71.97
61478;BME280;47345;52.334;10.392;2023-05-15T02:57:18;100465.54;;;11.58;71.92
61478;BME280;47345;52.334;10.392;2023-05-15T02:59:49;100464.48;;;11.51;71.24
61478;BME280;47345;52.334;10.392;2023-05-15T03:02:20;100471.06;;;11.45;71.20
61478;BME280;47345;52.334;10.392;2023-05-15T03:04:51;100467.23;;;11.37;71.46
61478;BME280;47345;52.334;10.392;2023-05-15T03:07:24;100464.38;;;11.32;71.67
61478;BME280;47345;52.334;10.392;2023-05-15T03:09:55;100461.44;;;11.27;72.27
61478;BME280;47345;52.334;10.392;2023-05-15T03:12:26;100460.35;;;11.22;72.49
61478;BME280;47345;52.334;10.392;2023-05-15T03:14:57;100461.46;;;11.18;72.55
61478;BME280;47345;52.334;10.392;2023-05-15T03:17:28;100457.40;;;11.14;72.57
61478;BME280;47345;52.334;10.392;2023-05-15T03:19:58;100459.58;;;11.10;72.65
61478;BME280;47345;52.334;10.392;2023-05-15T03:22:29;100455.05;;;11.07;72.80
61478;BME280;47345;52.334;10.392;2023-05-15T03:24:59;100450.84;;;11.04;73.02
61478;BME280;47345;52.334;10.392;2023-05-15T03:27:31;100450.34;;;11.04;73.03
61478;BME280;47345;52.334;10.392;2023-05-15T03:30:01;100440.88;;;11.03;73.32
61478;BME280;47345;52.334;10.392;2023-05-15T03:32:32;100441.79;;;11.04;73.27
61478;BME280;47345;52.334;10.392;2023-05-15T03:35:03;100442.34;;;11.03;73.21
61478;BME280;47345;52.334;10.392;2023-05-15T03:37:34;100444.41;;;11.01;73.38
61478;BME280;47345;52.334;10.392;2023-05-15T03:40:07;100444.85;;;10.99;73.63
61478;BME280;47345;52.334;10.392;2023-05-15T03:42:41;100443.84;;;10.99;73.50
61478;BME280;47345;52.334;10.392;2023-05-15T03:45:11;100439.68;;;10.96;73.56
61478;BME280;47345;52.334;10.392;2023-05-15T03:47:42;100438.19;;;10.92;73.54
61478;BME280;47345;52.334;10.392;2023-05-15T03:50:14;100436.42;;;10.89;73.77
61478;BME280;47345;52.334;10.392;2023-05-15T03:52:44;100434.74;;;10.87;73.70
61478;BME280;47345;52.334;10.392;2023-05-15T03:55:16;100431.41;;;10.79;73.13
61478;BME280;47345;52.334;10.392;2023-05-15T03:57:47;100430.27;;;10.72;72.95
61478;BME280;47345;52.334;10.392;2023-05-15T04:00:18;100432.46;;;10.66;73.15
61478;BME280;47345;52.334;10.392;2023-05-15T04:02:50;100436.09;;;10.64;73.59
61478;BME280;47345;52.334;10.392;2023-05-15T04:05:21;100438.02;;;10.63;74.05
61478;BME280;47345;52.334;10.392;2023-05-15T04:07:52;100441.73;;;10.62;74.30
61478;BME280;47345;52.334;10.392;2023-05-15T04:10:22;100437.73;;;10.62;74.53
61478;BME280;47345;52.334;10.392;2023-05-15T04:12:54;100439.80;;;10.63;74.69
61478;BME280;47345;52.334;10.392;2023-05-15T04:15:26;100435.75;;;10.64;74.79
61478;BME280;47345;52.334;10.392;2023-05-15T04:17:57;100436.17;;;10.65;74.88
61478;BME280;47345;52.334;10.392;2023-05-15T04:20:28;100434.27;;;10.65;75.08
61478;BME280;47345;52.334;10.392;2023-05-15T04:23:01;100436.88;;;10.67;75.31
61478;BME280;47345;52.334;10.392;2023-05-15T04:25:32;100436.02;;;10.71;75.23
61478;BME280;47345;52.334;10.392;2023-05-15T04:28:03;100437.40;;;10.73;75.17
61478;BME280;47345;52.334;10.392;2023-05-15T04:30:34;100433.69;;;10.76;75.16
61478;BME280;47345;52.334;10.392;2023-05-15T04:33:06;100434.33;;;10.79;75.18
61478;BME280;47345;52.334;10.392;2023-05-15T04:35:37;100432.66;;;10.83;75.13
61478;BME280;47345;52.334;10.392;2023-05-15T04:38:11;100433.60;;;10.89;75.32
61478;BME280;47345;52.334;10.392;2023-05-15T04:40:42;100433.33;;;10.94;75.42
61478;BME280;47345;52.334;10.392;2023-05-15T04:43:12;100432.71;;;11.00;75.54
61478;BME280;47345;52.334;10.392;2023-05-15T04:45:44;100432.27;;;11.06;75.53
61478;BME280;47345;52.334;10.392;2023-05-15T04:48:15;100432.99;;;11.11;75.53
61478;BME280;47345;52.334;10.392;2023-05-15T04:50:47;100435.52;;;11.17;75.45
61478;BME280;47345;52.334;10.392;2023-05-15T04:53:18;100435.95;;;11.23;75.49
61478;BME280;47345;52.334;10.392;2023-05-15T04:55:49;100434.48;;;11.29;75.47
61478;BME280;47345;52.334;10.392;2023-05-15T04:58:21;100436.03;;;11.33;75.36
61478;BME280;47345;52.334;10.392;2023-05-15T05:00:51;100433.14;;;11.37;75.36
61478;BME280;47345;52.334;10.392;2023-05-15T05:03:22;100433.67;;;11.40;75.30
61478;BME280;47345;52.334;10.392;2023-05-15T05:05:53;100435.05;;;11.41;75.36
61478;BME280;47345;52.334;10.392;2023-05-15T05:08:24;100432.39;;;11.44;75.35
61478;BME280;47345;52.334;10.392;2023-05-15T05:10:57;100429.67;;;11.46;75.35
61478;BME280;47345;52.334;10.392;2023-05-15T05:13:28;100422.77;;;11.47;75.20
61478;BME280;47345;52.334;10.392;2023-05-15T05:15:58;100421.59;;;11.50;75.21
61478;BME280;47345;52.334;10.392;2023-05-15T05:18:30;100420.11;;;11.53;75.24
61478;BME280;47345;52.334;10.392;2023-05-15T05:21:01;100412.77;;;11.53;75.08
61478;BME280;47345;52.334;10.392;2023-05-15T05:23:32;100413.35;;;11.54;75.01
61478;BME280;47345;52.334;10.392;2023-05-15T05:26:03;100413.94;;;11.55;74.98
61478;BME280;47345;52.334;10.392;2023-05-15T05:28:36;100412.51;;;11.55;75.13
61478;BME280;47345;52.334;10.392;2023-05-15T05:31:07;100410.54;;;11.55;75.28
61478;BME280;47345;52.334;10.392;2023-05-15T05:33:38;100412.25;;;11.54;75.39
61478;BME280;47345;52.334;10.392;2023-05-15T05:36:10;100416.09;;;11.54;75.35
61478;BME280;47345;52.334;10.392;2023-05-15T05:38:40;100418.30;;;11.57;75.58
61478;BME280;47345;52.334;10.392;2023-05-15T05:41:11;100423.85;;;11.60;75.60
61478;BME280;47345;52.334;10.392;2023-05-15T05:43:42;100428.89;;;11.62;75.54
61478;BME280;47345;52.334;10.392;2023-05-15T05:46:12;100432.35;;;11.62;75.90
61478;BME280;47345;52.334;10.392;2023-05-15T05:48:44;100432.00;;;11.63;76.06
61478;BME280;47345;52.334;10.392;2023-05-15T05:51:15;100428.33;;;11.66;76.20
61478;BME280;47345;52.334;10.392;2023-05-15T05:53:46;100424.30;;;11.71;75.98
61478;BME280;47345;52.334;10.392;2023-05-15T05:56:17;100418.19;;;11.76;75.80
61478;BME280;47345;52.334;10.392;2023-05-15T05:58:48;100417.67;;;11.82;75.97
61478;BME280;47345;52.334;10.392;2023-05-15T06:01:18;100426.14;;;11.90;76.66
61478;BME280;47345;52.334;10.392;2023-05-15T06:03:50;100420.86;;;11.97;76.69
61478;BME280;47345;52.334;10.392;2023-05-15T06:06:21;100418.41;;;12.05;76.50
61478;BME280;47345;52.334;10.392;2023-05-15T06:08:51;100415.51;;;12.13;76.25
61478;BME280;47345;52.334;10.392;2023-05-15T06:11:25;100418.52;;;12.22;76.00
61478;BME280;47345;52.334;10.392;2023-05-15T06:13:56;100411.75;;;12.30;75.84
61478;BME280;47345;52.334;10.392;2023-05-15T06:16:26;100408.63;;;12.37;75.74
61478;BME280;47345;52.334;10.392;2023-05-15T06:18:57;100408.09;;;12.45;75.60
61478;BME280;47345;52.334;10.392;2023-05-15T06:21:28;100410.42;;;12.55;75.74
61478;BME280;47345;52.334;10.392;2023-05-15T06:23:59;100407.98;;;12.65;76.10
61478;BME280;47345;52.334;10.392;2023-05-15T06:26:30;100407.24;;;12.77;75.86
61478;BME280;47345;52.334;10.392;2023-05-15T06:29:01;100406.50;;;12.89;75.92
61478;BME280;47345;52.334;10.392;2023-05-15T06:31:31;100404.55;;;13.02;75.83
61478;BME280;47345;52.334;10.392;2023-05-15T06:34:02;100411.48;;;13.14;75.95
61478;BME280;47345;52.334;10.392;2023-05-15T06:39:03;100417.50;;;13.37;75.98
61478;BME280;47345;52.334;10.392;2023-05-15T06:41:34;100414.15;;;13.46;75.88
61478;BME280;47345;52.334;10.392;2023-05-15T06:44:05;100413.32;;;13.54;75.83
61478;BME280;47345;52.334;10.392;2023-05-15T06:46:36;100411.50;;;13.62;75.74
61478;BME280;47345;52.334;10.392;2023-05-15T06:49:06;100408.85;;;13.68;75.60
61478;BME280;47345;52.334;10.392;2023-05-15T06:51:37;100412.77;;;13.78;75.18
61478;BME280;47345;52.334;10.392;2023-05-15T06:54:08;100414.42;;;13.87;74.78
61478;BME280;47345;52.334;10.392;2023-05-15T06:56:40;100415.34;;;13.96;74.30
61478;BME280;47345;52.334;10.392;2023-05-15T06:59:10;100409.73;;;14.02;73.92
61478;BME280;47345;52.334;10.392;2023-05-15T07:01:41;100403.70;;;14.10;73.80
61478;BME280;47345;52.334;10.392;2023-05-15T07:04:12;100406.53;;;14.18;73.91
61478;BME280;47345;52.334;10.392;2023-05-15T07:06:43;100405.84;;;14.24;74.16
61478;BME280;47345;52.334;10.392;2023-05-15T07:09:16;100403.54;;;14.29;74.06
61478;BME280;47345;52.334;10.392;2023-05-15T07:11:47;100399.33;;;14.36;73.97
61478;BME280;47345;52.334;10.392;2023-05-15T07:14:21;100399.56;;;14.44;73.93
61478;BME280;47345;52.334;10.392;2023-05-15T07:16:52;100397.58;;;14.55;73.75
61478;BME280;47345;52.334;10.392;2023-05-15T07:19:23;100394.46;;;14.65;73.77
61478;BME280;47345;52.334;10.392;2023-05-15T07:21:54;100393.91;;;14.78;73.59
61478;BME280;47345;52.334;10.392;2023-05-15T07:24:28;100389.45;;;14.93;73.33
61478;BME280;47345;52.334;10.392;2023-05-15T07:26:59;100389.86;;;15.07;73.12
61478;BME280;47345;52.334;10.392;2023-05-15T07:29:30;100391.42;;;15.23;72.93
61478;BME280;47345;52.334;10.392;2023-05-15T07:32:01;100390.71;;;15.39;72.25
61478;BME280;47345;52.334;10.392;2023-05-15T07:34:32;100388.86;;;15.56;72.40
61478;BME280;47345;52.334;10.392;2023-05-15T07:37:03;100385.63;;;15.74;72.56
61478;BME280;47345;52.334;10.392;2023-05-15T07:39:35;100389.95;;;15.95;72.65
61478;BME280;47345;52.334;10.392;2023-05-15T07:42:06;100387.42;;;16.14;72.33
61478;BME280;47345;52.334;10.392;2023-05-15T07:44:37;100385.30;;;16.32;71.30
61478;BME280;47345;52.334;10.392;2023-05-15T07:47:09;100383.72;;;16.46;70.60
61478;BME280;47345;52.334;10.392;2023-05-15T07:49:40;100377.61;;;16.60;70.55
61478;BME280;47345;52.334;10.392;2023-05-15T07:52:11;100379.67;;;16.75;70.69
61478;BME280;47345;52.334;10.392;2023-05-15T07:54:42;100378.17;;;16.88;70.79
61478;BME280;47345;52.334;10.392;2023-05-15T07:57:12;100379.44;;;17.01;70.82
61478;BME280;47345;52.334;10.392;2023-05-15T07:59:44;100376.34;;;17.11;70.17
61478;BME280;47345;52.334;10.392;2023-05-15T08:02:14;100375.77;;;17.19;69.02
61478;BME280;47345;52.334;10.392;2023-05-15T08:04:45;100372.23;;;17.23;67.54
61478;BME280;47345;52.334;10.392;2023-05-15T08:07:15;100371.55;;;17.23;65.58
61478;BME280;47345;52.334;10.392;2023-05-15T08:09:46;100365.98;;;17.19;63.32
61478;BME280;47345;52.334;10.392;2023-05-15T08:12:18;100363.35;;;17.16;63.12
61478;BME280;47345;52.334;10.392;2023-05-15T08:14:51;100356.48;;;17.15;63.97
61478;BME280;47345;52.334;10.392;2023-05-15T08:17:23;100353.59;;;17.18;63.62
61478;BME280;47345;52.334;10.392;2023-05-15T08:19:54;100350.30;;;17.20;63.08
61478;BME280;47345;52.334;10.392;2023-05-15T08:22:25;100351.38;;;17.27;62.93
61478;BME280;47345;52.334;10.392;2023-05-15T08:24:55;100343.46;;;17.34;62.65
61478;BME280;47345;52.334;10.392;2023-05-15T08:27:27;100341.42;;;17.40;61.91
61478;BME280;47345;52.334;10.392;2023-05-15T08:29:57;100341.27;;;17.47;62.01
61478;BME280;47345;52.334;10.392;2023-05-15T08:32:28;100344.67;;;17.54;61.78
61478;BME280;47345;52.334;10.392;2023-05-15T08:34:59;100343.50;;;17.60;61.00
61478;BME280;47345;52.334;10.392;2023-05-15T08:37:30;100339.96;;;17.66;60.44
61478;BME280;47345;52.334;10.392;2023-05-15T08:40:02;100338.06;;;17.71;61.01
61478;BME280;47345;52.334;10.392;2023-05-15T08:42:42;100332.25;;;17.77;61.61
61478;BME280;47345;52.334;10.392;2023-05-15T08:45:14;100330.85;;;17.84;61.64
61478;BME280;47345;52.334;10.392;2023-05-15T08:47:44;100323.77;;;17.90;60.97
61478;BME280;47345;52.334;10.392;2023-05-15T08:50:19;100324.23;;;17.94;60.68
61478;BME280;47345;52.334;10.392;2023-05-15T08:52:50;100323.26;;;17.97;60.19
61478;BME280;47345;52.334;10.392;2023-05-15T08:55:26;100319.44;;;17.98;59.81
61478;BME280;47345;52.334;10.392;2023-05-15T08:57:59;100313.84;;;18.02;59.55
61478;BME280;47345;52.334;10.392;2023-05-15T09:00:30;100314.45;;;18.05;59.18
61478;BME280;47345;52.334;10.392;2023-05-15T09:03:01;100313.16;;;18.09;57.78
61478;BME280;47345;52.334;10.392;2023-05-15T09:05:32;100311.40;;;18.11;57.05
61478;BME280;47345;52.334;10.392;2023-05-15T09:08:07;100311.92;;;18.14;56.88
61478;BME280;47345;52.334;10.392;2023-05-15T09:10:38;100305.74;;;18.19;57.30
61478;BME280;47345;52.334;10.392;2023-05-15T09:13:10;100301.88;;;18.23;56.84
61478;BME280;47345;52.334;10.392;2023-05-15T09:15:41;100302.08;;;18.27;56.65
61478;BME280;47345;52.334;10.392;2023-05-15T09:18:12;100299.28;;;18.35;56.69
61478;BME280;47345;52.334;10.392;2023-05-15T09:20:43;100299.14;;;18.42;56.35
61478;BME280;47345;52.334;10.392;2023-05-15T09:23:26;100301.77;;;18.46;55.45
61478;BME280;47345;52.334;10.392;2023-05-15T09:25:57;100294.69;;;18.49;55.15
61478;BME280;47345;52.334;10.392;2023-05-15T09:28:30;100299.13;;;18.54;55.29
61478;BME280;47345;52.334;10.392;2023-05-15T09:31:03;100297.64;;;18.57;54.99
61478;BME280;47345;52.334;10.392;2023-05-15T09:33:35;100298.93;;;18.64;55.19
61478;BME280;47345;52.334;10.392;2023-05-15T09:36:08;100292.63;;;18.72;55.12
61478;BME280;47345;52.334;10.392;2023-05-15T09:38:42;100292.66;;;18.79;53.80
61478;BME280;47345;52.334;10.392;2023-05-15T09:41:24;100293.61;;;18.85;53.71
61478;BME280;47345;52.334;10.392;2023-05-15T09:43:58;100288.48;;;18.92;53.26
61478;BME280;47345;52.334;10.392;2023-05-15T09:46:30;100290.16;;;18.96;53.76
61478;BME280;47345;52.334;10.392;2023-05-15T09:49:03;100291.24;;;19.03;53.81
61478;BME280;47345;52.334;10.392;2023-05-15T09:51:35;100289.91;;;19.11;53.60
61478;BME280;47345;52.334;10.392;2023-05-15T09:54:06;100284.65;;;19.19;52.69
61478;BME280;47345;52.334;10.392;2023-05-15T09:56:44;100284.98;;;19.22;52.32
61478;BME280;47345;52.334;10.392;2023-05-15T09:59:17;100285.82;;;19.26;52.09
61478;BME280;47345;52.334;10.392;2023-05-15T10:01:50;100286.04;;;19.28;52.21
61478;BME280;47345;52.334;10.392;2023-05-15T10:04:21;100280.99;;;19.31;52.53
61478;BME280;47345;52.334;10.392;2023-05-15T10:06:52;100283.66;;;19.38;52.71
61478;BME280;47345;52.334;10.392;2023-05-15T10:09:22;100282.83;;;19.46;50.28
61478;BME280;47345;52.334;10.392;2023-05-15T10:11:59;100278.27;;;19.55;50.95
61478;BME280;47345;52.334;10.392;2023-05-15T10:14:30;100276.54;;;19.62;50.75
61478;BME280;47345;52.334;10.392;2023-05-15T10:17:02;100266.86;;;19.72;51.16
61478;BME280;47345;52.334;10.392;2023-05-15T10:19:32;100267.52;;;19.83;51.42
61478;BME280;47345;52.334;10.392;2023-05-15T10:22:21;100269.38;;;20.00;50.51
61478;BME280;47345;52.334;10.392;2023-05-15T10:25:00;100263.67;;;20.12;50.14
61478;BME280;47345;52.334;10.392;2023-05-15T10:27:32;100260.94;;;20.28;50.96
61478;BME280;47345;52.334;10.392;2023-05-15T10:30:06;100263.92;;;20.43;50.45
61478;BME280;47345;52.334;10.392;2023-05-15T10:32:39;100260.89;;;20.51;50.76
61478;BME280;47345;52.334;10.392;2023-05-15T10:35:12;100254.59;;;20.55;50.48
61478;BME280;47345;52.334;10.392;2023-05-15T10:37:47;100256.09;;;20.54;49.97
61478;BME280;47345;52.334;10.392;2023-05-15T10:40:18;100256.21;;;20.53;50.19
61478;BME280;47345;52.334;10.392;2023-05-15T10:42:49;100256.08;;;20.46;49.96
61478;BME280;47345;52.334;10.392;2023-05-15T10:45:20;100257.28;;;20.38;50.86
61478;BME280;47345;52.334;10.392;2023-05-15T10:47:52;100256.45;;;20.28;50.99
61478;BME280;47345;52.334;10.392;2023-05-15T10:50:25;100254.88;;;20.18;50.59
61478;BME280;47345;52.334;10.392;2023-05-15T10:52:56;100251.52;;;20.10;50.03
61478;BME280;47345;52.334;10.392;2023-05-15T10:55:27;100248.61;;;20.02;49.58
61478;BME280;47345;52.334;10.392;2023-05-15T10:58:00;100250.40;;;19.96;50.23
61478;BME280;47345;52.334;10.392;2023-05-15T11:00:30;100248.08;;;19.92;50.24
61478;BME280;47345;52.334;10.392;2023-05-15T11:03:01;100245.02;;;19.87;49.44
61478;BME280;47345;52.334;10.392;2023-05-15T11:06:10;100239.52;;;19.85;49.92
61478;BME280;47345;52.334;10.392;2023-05-15T11:08:40;100238.85;;;19.85;50.58
61478;BME280;47345;52.334;10.392;2023-05-15T11:14:17;100230.94;;;19.76;49.11
61478;BME280;47345;52.334;10.392;2023-05-15T11:16:59;100231.95;;;19.69;49.60
61478;BME280;47345;52.334;10.392;2023-05-15T11:19:53;100234.14;;;19.61;51.84
61478;BME280;47345;52.334;10.392;2023-05-15T11:22:31;100239.17;;;19.47;55.57
61478;BME280;47345;52.334;10.392;2023-05-15T11:25:05;100243.00;;;19.24;58.63
61478;BME280;47345;52.334;10.392;2023-05-15T11:27:40;100247.44;;;19.02;63.82
61478;BME280;47345;52.334;10.392;2023-05-15T11:30:15;100253.16;;;18.65;75.65
61478;BME280;47345;52.334;10.392;2023-05-15T11:32:55;100254.95;;;18.06;80.35
61478;BME280;47345;52.334;10.392;2023-05-15T11:35:31;100257.49;;;17.57;81.68
61478;BME280;47345;52.334;10.392;2023-05-15T11:38:09;100261.87;;;17.22;82.43
61478;BME280;47345;52.334;10.392;2023-05-15T11:40:50;100254.36;;;16.92;81.34
61478;BME280;47345;52.334;10.392;2023-05-15T11:43:25;100253.67;;;16.63;79.92
61478;BME280;47345;52.334;10.392;2023-05-15T11:46:04;100244.79;;;16.53;81.29
61478;BME280;47345;52.334;10.392;2023-05-15T11:48:36;100242.24;;;16.53;81.87
61478;BME280;47345;52.334;10.392;2023-05-15T11:51:16;100242.23;;;16.52;80.76
61478;BME280;47345;52.334;10.392;2023-05-15T11:53:49;100241.26;;;16.49;79.29
61478;BME280;47345;52.334;10.392;2023-05-15T11:56:21;100237.55;;;16.49;76.91
61478;BME280;47345;52.334;10.392;2023-05-15T11:58:57;100234.39;;;16.59;74.28
61478;BME280;47345;52.334;10.392;2023-05-15T12:01:29;100233.33;;;16.72;73.05
61478;BME280;47345;52.334;10.392;2023-05-15T12:04:13;100228.89;;;16.88;69.95
61478;BME280;47345;52.334;10.392;2023-05-15T12:06:45;100232.81;;;17.04;68.77
61478;BME280;47345;52.334;10.392;2023-05-15T12:09:18;100231.05;;;17.19;67.81
61478;BME280;47345;52.334;10.392;2023-05-15T12:11:56;100228.33;;;17.37;65.87
61478;BME280;47345;52.334;10.392;2023-05-15T12:14:29;100230.41;;;17.52;65.63
61478;BME280;47345;52.334;10.392;2023-05-15T12:17:02;100230.94;;;17.66;63.16
61478;BME280;47345;52.334;10.392;2023-05-15T12:19:33;100226.93;;;17.80;64.25
61478;BME280;47345;52.334;10.392;2023-05-15T12:22:06;100223.77;;;17.97;63.45
61478;BME280;47345;52.334;10.392;2023-05-15T12:24:39;100223.89;;;18.14;61.19
61478;BME280;47345;52.334;10.392;2023-05-15T12:27:10;100222.91;;;18.33;60.40
61478;BME280;47345;52.334;10.392;2023-05-15T12:29:43;100221.70;;;18.54;60.40
61478;BME280;47345;52.334;10.392;2023-05-15T12:32:14;100218.45;;;18.72;58.37
61478;BME280;47345;52.334;10.392;2023-05-15T12:34:45;100215.73;;;18.94;58.36
61478;BME280;47345;52.334;10.392;2023-05-15T12:37:17;100215.45;;;19.14;56.23
61478;BME280;47345;52.334;10.392;2023-05-15T12:39:54;100216.66;;;19.34;57.57
61478;BME280;47345;52.334;10.392;2023-05-15T12:42:27;100214.48;;;19.50;54.39
61478;BME280;47345;52.334;10.392;2023-05-15T12:44:57;100215.48;;;19.64;54.26
61478;BME280;47345;52.334;10.392;2023-05-15T12:47:28;100217.02;;;19.74;52.70
61478;BME280;47345;52.334;10.392;2023-05-15T12:49:59;100211.23;;;19.83;52.73
61478;BME280;47345;52.334;10.392;2023-05-15T12:52:31;100206.11;;;19.95;52.57
61478;BME280;47345;52.334;10.392;2023-05-15T12:55:02;100205.73;;;20.05;50.94
61478;BME280;47345;52.334;10.392;2023-05-15T12:57:33;100203.46;;;20.14;51.12
61478;BME280;47345;52.334;10.392;2023-05-15T13:00:08;100198.52;;;20.23;51.06
61478;BME280;47345;52.334;10.392;2023-05-15T13:02:43;100199.44;;;20.31;50.55
61478;BME280;47345;52.334;10.392;2023-05-15T13:05:14;100195.29;;;20.39;50.50
61478;BME280;47345;52.334;10.392;2023-05-15T13:07:45;100196.23;;;20.46;50.04
61478;BME280;47345;52.334;10.392;2023-05-15T13:10:19;100196.04;;;20.52;48.33
61478;BME280;47345;52.334;10.392;2023-05-15T13:12:51;100198.90;;;20.57;48.70
61478;BME280;47345;52.334;10.392;2023-05-15T13:15:27;100194.43;;;20.60;48.24